Time;durP1;ratioP1;P1;durP2;ratioP2;P2;SDS_P1;SDS_P2;PMS_P1;PMS_P2;Temp;Humidity;BMP_temperature;BMP_pressure;BME280_temperature;BME280_humidity;BME280_pressure;Samples;Min_cycle;Max_cycle;Signal;HPM_P1;HPM_P2
2022/01/18 00:00:35;;;;;;;37.42;7.22;;;;;;;;;;5007306;28;20213;-62
2022/01/18 00:03:00;;;;;;;33.40;6.78;;;;;;;;;;4993455;28;20209;-63
2022/01/18 00:05:26;;;;;;;31.30;5.82;;;;;;;;;;4994720;28;20364;-62
2022/01/18 00:07:51;;;;;;;37.42;5.22;;;;;;;;;;4994567;28;20258;-62
2022/01/18 00:10:17;;;;;;;24.00;4.55;;;;;;;;;;4993499;28;20296;-62
2022/01/18 00:12:56;;;;;;;32.60;4.75;;;;;;;;;;4994525;28;20221;-62
2022/01/18 00:20:39;;;;;;;31.27;4.60;;;;;;;;;;4974598;28;20770;-62
2022/01/18 00:23:04;;;;;;;34.10;4.90;;;;;;;;;;4995102;28;20227;-62
2022/01/18 00:25:30;;;;;;;32.30;5.00;;;;;;;;;;5013836;28;20216;-62
2022/01/18 00:27:55;;;;;;;31.98;5.28;;;;;;;;;;5013692;28;20259;-62
2022/01/18 00:30:54;;;;;;;30.30;5.07;;;;;;;;;;5012633;28;20274;-62
2022/01/18 00:35:45;;;;;;;30.77;5.10;;;;;;;;;;5013766;28;20232;-62
2022/01/18 00:38:28;;;;;;;39.75;5.32;;;;;;;;;;4994940;28;20208;-62
2022/01/18 00:40:53;;;;;;;35.35;5.70;;;;;;;;;;5013622;28;20212;-62
2022/01/18 00:43:18;;;;;;;39.38;5.72;;;;;;;;;;5013040;28;20790;-62
2022/01/18 00:45:44;;;;;;;37.13;5.35;;;;;;;;;;5012798;28;20204;-62
2022/01/18 00:48:09;;;;;;;31.40;5.45;;;;;;;;;;4995660;28;20220;-62
2022/01/18 00:50:35;;;;;;;42.13;5.47;;;;;;;;;;4996255;28;20204;-62
2022/01/18 00:53:05;;;;;;;30.70;4.70;;;;;;;;;;5012097;28;20295;-63
2022/01/18 00:55:34;;;;;;;32.95;4.85;;;;;;;;;;5013438;28;20256;-62
2022/01/18 00:58:00;;;;;;;35.35;5.20;;;;;;;;;;5011896;28;20239;-62
2022/01/18 01:00:25;;;;;;;30.85;5.22;;;;;;;;;;5007212;28;20244;-62
2022/01/18 01:02:50;;;;;;;31.17;5.90;;;;;;;;;;4993758;28;20692;-62
2022/01/18 01:05:15;;;;;;;31.83;5.38;;;;;;;;;;4992208;28;20213;-62
2022/01/18 01:07:41;;;;;;;35.08;4.55;;;;;;;;;;4993314;28;20554;-62
2022/01/18 01:10:06;;;;;;;35.63;5.05;;;;;;;;;;4993206;28;20210;-62
2022/01/18 01:12:31;;;;;;;33.90;5.07;;;;;;;;;;4992662;28;20295;-62
2022/01/18 01:15:04;;;;;;;33.58;4.70;;;;;;;;;;4993644;28;20217;-62
2022/01/18 01:17:43;;;;;;;34.50;5.63;;;;;;;;;;4979283;28;20210;-62
2022/01/18 01:34:23;;;;;;;41.28;6.15;;;;;;;;;;4997202;28;20219;-62
2022/01/18 01:37:10;;;;;;;27.42;4.75;;;;;;;;;;5012191;28;20235;-62
2022/01/18 01:42:32;;;;;;;29.15;4.93;;;;;;;;;;5011610;28;20216;-62
2022/01/18 01:44:58;;;;;;;37.95;5.35;;;;;;;;;;4997985;28;20219;-62
2022/01/18 01:47:34;;;;;;;33.10;6.03;;;;;;;;;;5011287;28;20212;-62
2022/01/18 01:49:59;;;;;;;33.22;5.38;;;;;;;;;;5012749;28;20219;-62
2022/01/18 01:52:24;;;;;;;33.53;5.30;;;;;;;;;;4994470;28;20206;-62
2022/01/18 01:54:49;;;;;;;35.22;5.53;;;;;;;;;;4994464;28;20216;-62
2022/01/18 01:57:15;;;;;;;32.60;5.43;;;;;;;;;;5012107;28;20236;-62
2022/01/18 01:59:40;;;;;;;43.95;5.35;;;;;;;;;;5012720;28;20552;-62
2022/01/18 02:02:05;;;;;;;34.58;6.28;;;;;;;;;;4992152;28;20228;-62
2022/01/18 02:04:31;;;;;;;34.63;5.68;;;;;;;;;;4993035;28;20205;-62
2022/01/18 02:06:56;;;;;;;37.20;6.07;;;;;;;;;;4992859;28;20217;-62
2022/01/18 02:09:21;;;;;;;35.05;6.03;;;;;;;;;;4993594;28;20658;-62
2022/01/18 02:11:47;;;;;;;37.53;5.57;;;;;;;;;;4997064;28;20220;-62
2022/01/18 02:14:17;;;;;;;38.65;6.25;;;;;;;;;;4995066;28;20691;-62
2022/01/18 02:22:10;;;;;;;31.00;5.20;;;;;;;;;;4999398;28;20227;-62
2022/01/18 02:24:36;;;;;;;33.03;5.53;;;;;;;;;;5015510;28;20216;-62
2022/01/18 02:27:01;;;;;;;32.40;6.00;;;;;;;;;;5015871;28;20204;-62
2022/01/18 02:29:26;;;;;;;38.05;5.72;;;;;;;;;;5015117;28;20216;-62
2022/01/18 02:31:52;;;;;;;37.88;5.68;;;;;;;;;;4998710;28;20667;-61
2022/01/18 02:34:18;;;;;;;34.55;6.07;;;;;;;;;;4998059;28;20672;-62
2022/01/18 02:36:43;;;;;;;34.80;5.47;;;;;;;;;;5015213;28;20277;-62
2022/01/18 02:39:08;;;;;;;35.10;5.93;;;;;;;;;;5015332;28;20691;-62
2022/01/18 02:41:34;;;;;;;35.67;5.38;;;;;;;;;;4998552;28;20216;-61
2022/01/18 02:44:00;;;;;;;34.53;5.53;;;;;;;;;;5015152;28;20213;-61
2022/01/18 02:46:25;;;;;;;38.17;5.78;;;;;;;;;;5015344;28;20212;-62
2022/01/18 02:48:50;;;;;;;29.50;4.57;;;;;;;;;;5015758;28;20220;-62
2022/01/18 02:51:16;;;;;;;35.30;5.18;;;;;;;;;;5014298;28;20213;-62
2022/01/18 02:53:55;;;;;;;30.58;5.05;;;;;;;;;;5015609;28;20213;-61
2022/01/18 02:56:20;;;;;;;35.00;5.25;;;;;;;;;;5015110;28;20259;-62
2022/01/18 02:58:46;;;;;;;34.45;5.65;;;;;;;;;;5014557;28;20236;-61
2022/01/18 03:04:02;;;;;;;33.40;5.38;;;;;;;;;;4994973;28;20268;-62
2022/01/18 03:06:27;;;;;;;33.92;5.13;;;;;;;;;;4994960;28;20217;-62
2022/01/18 03:08:52;;;;;;;41.13;5.15;;;;;;;;;;4995580;28;20221;-61
2022/01/18 03:11:18;;;;;;;29.20;4.68;;;;;;;;;;4977951;28;20217;-62
2022/01/18 03:13:44;;;;;;;30.25;4.85;;;;;;;;;;4994908;28;20213;-61
2022/01/18 03:16:09;;;;;;;34.17;5.75;;;;;;;;;;4974926;28;20271;-62
2022/01/18 03:18:35;;;;;;;34.35;5.22;;;;;;;;;;4975338;28;20214;-61
2022/01/18 03:21:00;;;;;;;36.35;5.28;;;;;;;;;;4975509;28;20238;-61
2022/01/18 03:23:25;;;;;;;35.53;4.88;;;;;;;;;;5002673;28;20282;-61
2022/01/18 03:25:55;;;;;;;32.47;4.70;;;;;;;;;;5014224;28;20216;-61
2022/01/18 03:28:21;;;;;;;47.42;6.82;;;;;;;;;;4997986;28;20220;-62
2022/01/18 03:30:47;;;;;;;43.90;5.88;;;;;;;;;;5015070;28;20231;-61
2022/01/18 03:33:14;;;;;;;31.05;5.82;;;;;;;;;;5013709;28;20216;-62
2022/01/18 03:35:39;;;;;;;48.63;6.50;;;;;;;;;;5014713;28;20743;-61
2022/01/18 03:38:04;;;;;;;44.65;6.80;;;;;;;;;;5014168;28;20223;-62
2022/01/18 03:40:30;;;;;;;41.72;6.95;;;;;;;;;;4996354;28;20319;-61
2022/01/18 03:42:56;;;;;;;52.38;7.95;;;;;;;;;;5014930;28;20231;-61
2022/01/18 03:45:26;;;;;;;47.20;7.15;;;;;;;;;;5014061;28;20740;-61
2022/01/18 03:47:54;;;;;;;59.88;8.45;;;;;;;;;;4996810;28;20236;-61
2022/01/18 03:50:19;;;;;;;46.80;6.95;;;;;;;;;;5014196;28;20216;-62
2022/01/18 03:52:45;;;;;;;56.08;8.23;;;;;;;;;;5014413;28;20216;-61
2022/01/18 03:55:11;;;;;;;52.60;7.53;;;;;;;;;;4995514;28;20228;-62
2022/01/18 03:57:36;;;;;;;49.35;7.50;;;;;;;;;;5014409;28;20255;-62
2022/01/18 04:00:02;;;;;;;53.33;7.75;;;;;;;;;;5011117;28;20547;-62
2022/01/18 04:02:27;;;;;;;51.00;7.70;;;;;;;;;;4994216;28;20213;-61
2022/01/18 04:04:53;;;;;;;52.55;8.05;;;;;;;;;;4994576;28;20746;-61
2022/01/18 04:07:18;;;;;;;43.83;7.57;;;;;;;;;;4994235;28;20251;-62
2022/01/18 04:09:43;;;;;;;55.55;7.97;;;;;;;;;;4993443;28;20221;-61
2022/01/18 04:12:09;;;;;;;45.17;7.60;;;;;;;;;;4994335;28;20735;-61
2022/01/18 04:14:34;;;;;;;40.35;6.60;;;;;;;;;;4994491;28;20229;-62
2022/01/18 04:27:24;;;;;;;41.50;6.50;;;;;;;;;;5013549;28;20578;-61
2022/01/18 04:29:50;;;;;;;40.30;7.63;;;;;;;;;;4995556;28;20680;-61
2022/01/18 04:32:15;;;;;;;40.15;6.40;;;;;;;;;;5012698;28;20688;-62
2022/01/18 04:34:40;;;;;;;45.72;7.25;;;;;;;;;;4996052;28;20306;-62
2022/01/18 04:37:06;;;;;;;36.40;5.70;;;;;;;;;;5012800;28;20574;-62
2022/01/18 04:39:37;;;;;;;41.25;5.93;;;;;;;;;;5013510;28;20212;-62
2022/01/18 04:42:02;;;;;;;37.58;6.10;;;;;;;;;;5013381;28;20209;-62
2022/01/18 04:49:49;;;;;;;40.13;5.97;;;;;;;;;;4998644;28;20223;-62
2022/01/18 04:52:14;;;;;;;32.47;5.13;;;;;;;;;;5012294;28;20295;-61
2022/01/18 04:54:43;;;;;;;27.20;4.63;;;;;;;;;;5013163;28;20229;-62
2022/01/18 04:59:34;;;;;;;34.80;5.15;;;;;;;;;;5013043;28;20213;-62
2022/01/18 05:01:59;;;;;;;24.80;4.55;;;;;;;;;;4994942;28;20217;-62
2022/01/18 05:04:25;;;;;;;30.45;4.93;;;;;;;;;;4974945;28;20296;-61
2022/01/18 05:06:52;;;;;;;30.48;4.45;;;;;;;;;;4993696;28;20256;-61
2022/01/18 05:09:17;;;;;;;25.30;4.70;;;;;;;;;;4975436;28;20216;-62
2022/01/18 05:11:53;;;;;;;33.55;4.95;;;;;;;;;;4992953;28;20223;-61
2022/01/18 05:16:53;;;;;;;22.98;4.07;;;;;;;;;;4968626;28;20226;-61
2022/01/18 05:24:19;;;;;;;25.88;4.18;;;;;;;;;;4973707;28;20205;-61
2022/01/18 05:26:44;;;;;;;33.53;4.28;;;;;;;;;;4955663;28;20218;-62
2022/01/18 05:29:09;;;;;;;27.13;4.43;;;;;;;;;;4973499;28;20209;-62
2022/01/18 05:31:34;;;;;;;21.38;3.88;;;;;;;;;;4956724;28;20308;-62
2022/01/18 05:34:00;;;;;;;23.45;4.30;;;;;;;;;;4973052;28;20217;-61
2022/01/18 05:36:25;;;;;;;27.00;4.75;;;;;;;;;;4972057;28;20309;-62
2022/01/18 05:38:50;;;;;;;24.58;4.82;;;;;;;;;;4956596;28;20690;-62
2022/01/18 05:41:16;;;;;;;25.67;4.32;;;;;;;;;;4972197;28;20229;-62
2022/01/18 05:43:42;;;;;;;25.27;4.00;;;;;;;;;;4956547;28;20613;-62
2022/01/18 05:46:07;;;;;;;30.17;4.47;;;;;;;;;;4973277;28;20226;-62
2022/01/18 05:48:32;;;;;;;30.70;4.45;;;;;;;;;;4972937;28;20692;-62
2022/01/18 05:50:59;;;;;;;25.02;4.38;;;;;;;;;;4973757;28;20221;-62
2022/01/18 05:53:26;;;;;;;27.33;4.00;;;;;;;;;;4972474;28;20217;-62
2022/01/18 05:55:51;;;;;;;24.77;4.35;;;;;;;;;;4973255;28;20229;-61
2022/01/18 05:58:17;;;;;;;22.23;3.95;;;;;;;;;;4973010;28;20210;-62
2022/01/18 06:00:42;;;;;;;22.40;4.10;;;;;;;;;;4980662;28;20221;-62
2022/01/18 06:03:14;;;;;;;23.30;3.80;;;;;;;;;;4975204;28;20263;-62
2022/01/18 06:08:23;;;;;;;24.38;4.00;;;;;;;;;;4991643;28;20220;-62
2022/01/18 06:10:48;;;;;;;19.85;3.53;;;;;;;;;;4992644;28;20213;-62
2022/01/18 06:13:14;;;;;;;22.83;4.10;;;;;;;;;;4992608;28;20233;-62
2022/01/18 06:15:39;;;;;;;20.00;3.85;;;;;;;;;;4992170;28;20248;-63
2022/01/18 06:18:05;;;;;;;21.00;3.65;;;;;;;;;;4973877;28;20222;-62
2022/01/18 06:20:30;;;;;;;20.80;4.03;;;;;;;;;;4973122;28;20265;-62
2022/01/18 06:22:55;;;;;;;20.45;3.90;;;;;;;;;;4991619;28;20213;-62
2022/01/18 06:25:20;;;;;;;19.02;4.03;;;;;;;;;;5011896;28;20559;-62
2022/01/18 06:27:46;;;;;;;16.57;3.57;;;;;;;;;;4994701;28;20213;-62
2022/01/18 06:30:11;;;;;;;17.92;3.67;;;;;;;;;;5010828;28;20639;-62
2022/01/18 06:32:37;;;;;;;23.73;4.38;;;;;;;;;;4995092;28;20664;-62
2022/01/18 06:35:03;;;;;;;22.52;5.85;;;;;;;;;;5011746;28;20779;-63
2022/01/18 06:37:28;;;;;;;26.40;5.28;;;;;;;;;;5011361;28;20577;-62
2022/01/18 06:39:57;;;;;;;19.73;4.15;;;;;;;;;;5012071;28;20579;-62
2022/01/18 06:42:24;;;;;;;23.58;4.90;;;;;;;;;;4994462;28;20212;-64
2022/01/18 06:44:49;;;;;;;22.48;4.63;;;;;;;;;;4994352;28;20215;-64
2022/01/18 06:47:14;;;;;;;21.92;5.70;;;;;;;;;;4993897;28;20216;-67
2022/01/18 06:49:40;;;;;;;22.05;5.75;;;;;;;;;;5011284;28;20212;-64
2022/01/18 06:52:05;;;;;;;22.92;5.53;;;;;;;;;;4993892;28;20291;-65
2022/01/18 06:54:30;;;;;;;25.17;6.40;;;;;;;;;;5012616;28;20222;-63
2022/01/18 06:56:55;;;;;;;21.95;5.82;;;;;;;;;;4997136;28;20212;-64
2022/01/18 06:59:21;;;;;;;23.92;5.88;;;;;;;;;;5015005;28;20216;-64
2022/01/18 07:01:46;;;;;;;22.15;5.75;;;;;;;;;;4998814;28;20720;-64
2022/01/18 07:04:11;;;;;;;24.53;6.63;;;;;;;;;;4994806;28;20224;-64
2022/01/18 07:06:37;;;;;;;18.90;5.60;;;;;;;;;;4995644;28;20249;-64
2022/01/18 07:09:02;;;;;;;24.77;6.50;;;;;;;;;;4977968;28;20225;-64
2022/01/18 07:11:27;;;;;;;22.70;6.35;;;;;;;;;;4994915;28;20653;-64
2022/01/18 07:13:53;;;;;;;17.50;5.63;;;;;;;;;;4995722;28;20232;-64
2022/01/18 07:16:18;;;;;;;16.45;5.47;;;;;;;;;;4973777;28;20222;-64
2022/01/18 07:18:43;;;;;;;27.35;11.02;;;;;;;;;;4975472;28;20220;-64
2022/01/18 07:21:09;;;;;;;18.23;7.15;;;;;;;;;;4975223;28;20631;-63
2022/01/18 07:23:36;;;;;;;13.32;5.28;;;;;;;;;;4969988;28;20310;-64
2022/01/18 07:26:01;;;;;;;42.65;31.92;;;;;;;;;;4974773;28;20316;-63
2022/01/18 07:28:26;;;;;;;37.78;19.25;;;;;;;;;;4976028;28;20221;-63
2022/01/18 07:30:52;;;;;;;26.77;11.27;;;;;;;;;;4975921;28;20237;-63
2022/01/18 07:33:17;;;;;;;23.08;11.85;;;;;;;;;;4973781;28;20210;-63
2022/01/18 07:35:43;;;;;;;16.95;6.70;;;;;;;;;;4963266;28;20301;-63
2022/01/18 07:38:12;;;;;;;17.67;7.68;;;;;;;;;;4982167;28;20582;-63
2022/01/18 07:40:37;;;;;;;24.50;16.40;;;;;;;;;;4988508;28;20249;-63
2022/01/18 07:43:04;;;;;;;12.63;5.18;;;;;;;;;;4983590;28;20703;-63
2022/01/18 07:45:29;;;;;;;15.70;5.00;;;;;;;;;;4968510;28;20217;-63
2022/01/18 07:47:55;;;;;;;14.40;5.40;;;;;;;;;;4983588;28;20735;-63
2022/01/18 07:50:20;;;;;;;15.70;6.32;;;;;;;;;;4983807;28;20221;-63
2022/01/18 07:52:45;;;;;;;19.00;6.53;;;;;;;;;;4985399;28;20602;-63
2022/01/18 07:55:11;;;;;;;18.40;6.45;;;;;;;;;;4965337;28;20696;-63
2022/01/18 07:57:41;;;;;;;19.95;7.10;;;;;;;;;;4967503;28;20574;-64
2022/01/18 08:00:07;;;;;;;17.35;6.38;;;;;;;;;;4965390;28;20217;-64
2022/01/18 08:02:33;;;;;;;17.27;5.68;;;;;;;;;;4967241;28;20579;-64
2022/01/18 08:04:59;;;;;;;20.15;5.68;;;;;;;;;;4984765;28;20202;-64
2022/01/18 08:07:24;;;;;;;17.00;6.43;;;;;;;;;;4981985;28;20553;-64
2022/01/18 08:09:49;;;;;;;16.80;6.20;;;;;;;;;;4982126;28;20204;-63
2022/01/18 08:12:15;;;;;;;21.38;8.35;;;;;;;;;;5006416;28;20216;-62
2022/01/18 08:14:45;;;;;;;17.27;6.63;;;;;;;;;;5012961;28;20220;-63
2022/01/18 08:17:10;;;;;;;18.13;6.68;;;;;;;;;;5001758;28;20632;-63
2022/01/18 08:19:36;;;;;;;23.00;8.73;;;;;;;;;;4994075;28;20236;-63
2022/01/18 08:22:01;;;;;;;17.85;6.57;;;;;;;;;;4974412;28;20229;-63
2022/01/18 08:24:26;;;;;;;20.15;7.20;;;;;;;;;;4996429;28;20294;-62
2022/01/18 08:26:52;;;;;;;19.35;7.15;;;;;;;;;;5014031;28;20216;-63
2022/01/18 08:29:17;;;;;;;22.40;10.65;;;;;;;;;;4977526;28;20271;-63
2022/01/18 08:31:43;;;;;;;20.88;8.98;;;;;;;;;;4996388;28;20300;-63
2022/01/18 08:34:08;;;;;;;20.35;10.10;;;;;;;;;;5013190;28;20630;-63
2022/01/18 08:36:33;;;;;;;23.75;12.10;;;;;;;;;;5012460;28;20775;-63
2022/01/18 08:39:00;;;;;;;24.02;10.88;;;;;;;;;;5013439;28;20213;-63
2022/01/18 08:41:25;;;;;;;19.33;8.18;;;;;;;;;;5013402;28;20299;-63
2022/01/18 08:43:51;;;;;;;22.13;8.60;;;;;;;;;;4994840;28;20295;-63
2022/01/18 08:46:16;;;;;;;28.10;16.27;;;;;;;;;;5013000;28;20212;-63
2022/01/18 08:48:41;;;;;;;29.98;13.27;;;;;;;;;;5013354;28;20213;-62
2022/01/18 08:51:07;;;;;;;27.67;16.40;;;;;;;;;;5011973;28;20242;-63
2022/01/18 08:53:32;;;;;;;23.92;10.32;;;;;;;;;;4995888;28;20220;-62
2022/01/18 08:55:58;;;;;;;27.63;14.07;;;;;;;;;;5013409;28;20232;-62
2022/01/18 08:58:23;;;;;;;33.75;11.65;;;;;;;;;;4994013;28;20798;-62
2022/01/18 09:00:49;;;;;;;32.47;13.57;;;;;;;;;;5003826;28;20209;-62
2022/01/18 09:03:14;;;;;;;25.52;11.20;;;;;;;;;;4992219;28;20220;-63
2022/01/18 09:05:40;;;;;;;28.43;12.17;;;;;;;;;;4991233;28;20420;-65
2022/01/18 09:08:07;;;;;;;29.40;12.98;;;;;;;;;;4993235;28;20209;-62
2022/01/18 09:10:32;;;;;;;23.88;11.45;;;;;;;;;;4975623;28;20741;-63
2022/01/18 09:12:58;;;;;;;31.58;11.52;;;;;;;;;;4975805;28;20304;-62
2022/01/18 09:15:25;;;;;;;23.25;10.45;;;;;;;;;;4992653;28;20220;-63
2022/01/18 09:17:50;;;;;;;26.35;11.15;;;;;;;;;;4975883;28;20228;-63
2022/01/18 09:20:15;;;;;;;26.67;11.63;;;;;;;;;;4973314;28;20301;-62
2022/01/18 09:22:42;;;;;;;29.17;10.77;;;;;;;;;;4992158;28;20296;-62
2022/01/18 09:25:09;;;;;;;24.55;9.90;;;;;;;;;;4992137;28;20233;-62
2022/01/18 09:27:34;;;;;;;23.40;9.85;;;;;;;;;;4992666;28;20229;-62
2022/01/18 09:29:59;;;;;;;21.70;9.95;;;;;;;;;;4975046;28;20244;-62
2022/01/18 09:32:25;;;;;;;22.77;9.38;;;;;;;;;;4974565;28;20209;-63
2022/01/18 09:34:50;;;;;;;22.58;9.63;;;;;;;;;;4975731;28;20329;-62
2022/01/18 09:37:16;;;;;;;25.65;9.60;;;;;;;;;;4992675;28;20221;-62
2022/01/18 09:39:41;;;;;;;25.40;9.90;;;;;;;;;;4992340;28;20209;-63
2022/01/18 09:42:06;;;;;;;25.90;10.10;;;;;;;;;;4992680;28;20728;-63
2022/01/18 09:44:32;;;;;;;24.83;9.32;;;;;;;;;;4975169;28;20224;-62
2022/01/18 09:46:57;;;;;;;26.90;9.32;;;;;;;;;;4992191;28;20668;-62
2022/01/18 09:49:24;;;;;;;23.30;10.07;;;;;;;;;;4992605;28;20570;-62
2022/01/18 09:51:49;;;;;;;29.40;11.10;;;;;;;;;;4992545;28;20248;-62
2022/01/18 09:54:15;;;;;;;24.58;11.30;;;;;;;;;;4974276;28;20240;-62
2022/01/18 09:56:40;;;;;;;25.75;11.93;;;;;;;;;;4992940;28;20226;-61
2022/01/18 09:59:06;;;;;;;30.08;10.75;;;;;;;;;;4991851;28;20659;-62
2022/01/18 10:01:32;;;;;;;26.37;10.70;;;;;;;;;;4977253;28;20222;-62
2022/01/18 10:04:17;;;;;;;22.65;10.20;;;;;;;;;;4973439;28;20213;-61
2022/01/18 10:06:43;;;;;;;23.93;9.90;;;;;;;;;;4955346;28;20344;-62
2022/01/18 10:09:11;;;;;;;22.02;9.88;;;;;;;;;;4972908;28;20210;-62
2022/01/18 10:11:36;;;;;;;18.10;9.20;;;;;;;;;;4956474;28;20242;-62
2022/01/18 10:14:01;;;;;;;27.80;10.20;;;;;;;;;;4971573;28;20291;-62
2022/01/18 10:16:27;;;;;;;33.63;9.83;;;;;;;;;;4941632;28;20720;-62
2022/01/18 10:18:55;;;;;;;18.10;8.88;;;;;;;;;;4973215;28;20588;-62
2022/01/18 10:21:34;;;;;;;17.33;8.30;;;;;;;;;;4954950;28;20241;-62
2022/01/18 10:24:16;;;;;;;21.05;9.23;;;;;;;;;;5009624;28;20293;-61
2022/01/18 10:26:41;;;;;;;32.97;10.83;;;;;;;;;;5011867;28;20211;-61
2022/01/18 10:29:07;;;;;;;21.75;9.13;;;;;;;;;;4992773;28;20213;-62
2022/01/18 10:31:39;;;;;;;20.90;8.33;;;;;;;;;;4998302;28;20679;-62
2022/01/18 10:34:21;;;;;;;20.08;8.63;;;;;;;;;;4998727;28;20299;-62
2022/01/18 10:36:51;;;;;;;18.47;8.97;;;;;;;;;;4998606;28;20223;-62
2022/01/18 10:39:20;;;;;;;20.75;8.85;;;;;;;;;;5015074;28;20695;-62
2022/01/18 10:41:46;;;;;;;23.80;9.63;;;;;;;;;;5015145;28;20216;-62
2022/01/18 10:44:13;;;;;;;23.17;9.90;;;;;;;;;;5014679;28;20598;-62
2022/01/18 10:46:40;;;;;;;32.20;10.18;;;;;;;;;;5015669;28;20212;-62
2022/01/18 10:49:06;;;;;;;30.83;11.83;;;;;;;;;;5001983;28;20684;-62
2022/01/18 10:51:32;;;;;;;22.60;10.50;;;;;;;;;;4978669;28;20263;-62
2022/01/18 10:53:59;;;;;;;34.85;10.30;;;;;;;;;;4995832;28;20684;-62
2022/01/18 10:56:24;;;;;;;22.05;8.93;;;;;;;;;;4977570;28;20221;-62
2022/01/18 10:58:54;;;;;;;21.25;9.00;;;;;;;;;;4995458;28;20224;-62
2022/01/18 11:01:20;;;;;;;20.20;8.82;;;;;;;;;;4982230;28;20218;-62
2022/01/18 11:04:13;;;;;;;23.83;9.30;;;;;;;;;;4957851;28;20225;-61
2022/01/18 11:06:38;;;;;;;24.33;8.60;;;;;;;;;;4958660;28;20214;-62
2022/01/18 11:09:14;;;;;;;19.23;8.07;;;;;;;;;;4975749;28;20220;-62
2022/01/18 11:11:41;;;;;;;24.97;8.70;;;;;;;;;;4975607;28;20301;-62
2022/01/18 11:14:07;;;;;;;18.73;7.80;;;;;;;;;;4975295;28;20257;-62
2022/01/18 11:16:40;;;;;;;17.33;7.60;;;;;;;;;;4982057;28;20249;-62
2022/01/18 11:19:07;;;;;;;19.80;8.10;;;;;;;;;;4994105;28;20271;-62
2022/01/18 11:21:32;;;;;;;14.40;6.80;;;;;;;;;;4995487;28;20275;-62
2022/01/18 11:23:57;;;;;;;22.37;7.43;;;;;;;;;;4994751;28;20216;-62
2022/01/18 11:26:24;;;;;;;19.97;8.70;;;;;;;;;;4997265;28;20219;-62
2022/01/18 11:28:56;;;;;;;22.88;7.80;;;;;;;;;;5014575;28;20212;-61
2022/01/18 11:31:21;;;;;;;20.67;7.43;;;;;;;;;;5013576;28;20212;-62
2022/01/18 11:33:49;;;;;;;21.95;7.57;;;;;;;;;;5014833;28;20209;-62
2022/01/18 11:36:14;;;;;;;21.53;7.63;;;;;;;;;;5014016;28;20311;-62
2022/01/18 11:38:42;;;;;;;18.02;7.15;;;;;;;;;;5013991;28;20242;-61
2022/01/18 11:41:10;;;;;;;22.10;7.87;;;;;;;;;;4996628;28;20220;-62
2022/01/18 11:43:36;;;;;;;18.27;7.10;;;;;;;;;;4977341;28;20213;-62
2022/01/18 11:46:18;;;;;;;19.30;7.07;;;;;;;;;;4978665;28;20224;-62
2022/01/18 11:48:44;;;;;;;22.73;8.13;;;;;;;;;;4977369;28;20224;-62
2022/01/18 11:51:15;;;;;;;17.20;7.75;;;;;;;;;;4994307;28;20216;-62
2022/01/18 11:53:45;;;;;;;18.65;7.88;;;;;;;;;;4977774;28;20217;-62
2022/01/18 11:56:15;;;;;;;18.97;7.93;;;;;;;;;;4976689;28;20602;-62
2022/01/18 11:58:42;;;;;;;22.67;8.93;;;;;;;;;;4977109;28;20707;-62
2022/01/18 12:01:09;;;;;;;17.40;8.23;;;;;;;;;;4964575;28;20220;-62
2022/01/18 12:03:42;;;;;;;23.60;8.57;;;;;;;;;;4975024;28;20596;-62
2022/01/18 12:06:08;;;;;;;19.87;7.83;;;;;;;;;;4965442;28;20205;-62
2022/01/18 12:08:35;;;;;;;19.63;8.37;;;;;;;;;;4994620;28;20211;-62
2022/01/18 12:11:02;;;;;;;18.63;8.30;;;;;;;;;;4983573;28;20761;-62
2022/01/18 12:13:28;;;;;;;17.47;8.63;;;;;;;;;;4974007;28;20217;-61
2022/01/18 12:15:56;;;;;;;20.37;9.23;;;;;;;;;;4975461;28;20234;-61
2022/01/18 12:18:22;;;;;;;21.03;8.70;;;;;;;;;;4976879;28;20713;-62
2022/01/18 12:20:48;;;;;;;20.27;9.13;;;;;;;;;;4972586;28;20238;-62
2022/01/18 12:23:17;;;;;;;21.25;9.65;;;;;;;;;;4986183;28;20571;-61
2022/01/18 12:25:58;;;;;;;26.10;10.10;;;;;;;;;;4994244;28;20558;-61
2022/01/18 12:28:44;;;;;;;21.15;9.88;;;;;;;;;;4992807;28;20205;-61
2022/01/18 12:31:24;;;;;;;25.57;10.03;;;;;;;;;;4993733;28;20213;-61
2022/01/18 12:33:51;;;;;;;22.38;9.40;;;;;;;;;;4994110;28;20555;-61
2022/01/18 12:36:27;;;;;;;23.58;9.30;;;;;;;;;;4991565;28;20716;-61
2022/01/18 12:38:59;;;;;;;18.77;9.50;;;;;;;;;;4992926;28;20344;-61
2022/01/18 12:41:38;;;;;;;21.67;9.13;;;;;;;;;;4992521;28;20205;-61
2022/01/18 12:44:20;;;;;;;22.23;9.10;;;;;;;;;;4993664;28;20212;-62
2022/01/18 12:46:52;;;;;;;26.07;9.77;;;;;;;;;;4982038;28;20249;-61
2022/01/18 12:49:17;;;;;;;20.90;9.13;;;;;;;;;;4959847;28;20211;-61
2022/01/18 12:51:42;;;;;;;29.17;10.53;;;;;;;;;;4955154;28;20812;-61
2022/01/18 12:54:08;;;;;;;24.13;9.50;;;;;;;;;;4967244;28;20213;-61
2022/01/18 12:56:33;;;;;;;21.15;9.02;;;;;;;;;;4973261;28;20222;-61
2022/01/18 12:59:01;;;;;;;25.47;10.87;;;;;;;;;;4974394;28;20221;-62
2022/01/18 13:01:28;;;;;;;22.70;10.20;;;;;;;;;;4973642;28;20297;-62
2022/01/18 13:03:54;;;;;;;22.52;8.98;;;;;;;;;;4972578;28;20220;-62
2022/01/18 13:06:20;;;;;;;26.50;9.93;;;;;;;;;;4973851;28;20210;-62
2022/01/18 13:08:54;;;;;;;21.85;8.35;;;;;;;;;;4973537;28;20218;-61
2022/01/18 13:11:20;;;;;;;22.15;9.07;;;;;;;;;;4971509;28;20217;-61
2022/01/18 13:13:53;;;;;;;18.20;8.18;;;;;;;;;;4973021;28;20677;-61
2022/01/18 13:26:55;;;;;;;24.48;8.45;;;;;;;;;;4953933;28;20219;-62
2022/01/18 13:29:22;;;;;;;20.02;7.18;;;;;;;;;;4954180;28;20579;-61
2022/01/18 13:32:06;;;;;;;18.33;6.82;;;;;;;;;;4953952;28;20214;-62
2022/01/18 13:34:33;;;;;;;21.27;8.23;;;;;;;;;;4953076;28;20218;-62
2022/01/18 13:37:00;;;;;;;19.17;7.07;;;;;;;;;;4953096;28;20222;-62
2022/01/18 13:39:28;;;;;;;25.70;7.47;;;;;;;;;;4953530;28;20710;-62
2022/01/18 13:41:53;;;;;;;24.33;7.82;;;;;;;;;;4957226;28;20262;-63
2022/01/18 13:44:19;;;;;;;20.45;7.10;;;;;;;;;;4964959;28;20210;-63
2022/01/18 13:46:44;;;;;;;20.38;7.85;;;;;;;;;;4955503;28;20267;-61
2022/01/18 13:49:09;;;;;;;23.97;7.50;;;;;;;;;;4972393;28;20272;-62
2022/01/18 13:51:35;;;;;;;19.20;6.70;;;;;;;;;;4973044;28;20642;-61
2022/01/18 13:54:04;;;;;;;19.50;7.15;;;;;;;;;;4972130;28;20567;-61
2022/01/18 13:56:30;;;;;;;24.40;7.20;;;;;;;;;;4972472;28;20233;-62
2022/01/18 13:59:02;;;;;;;20.83;7.05;;;;;;;;;;4972872;28;20642;-61
2022/01/18 14:01:28;;;;;;;18.67;5.90;;;;;;;;;;4949947;29;20250;-61
2022/01/18 14:03:55;;;;;;;27.95;9.13;;;;;;;;;;4953941;28;20222;-61
2022/01/18 14:06:31;;;;;;;28.08;7.45;;;;;;;;;;4955649;28;20222;-62
2022/01/18 14:08:56;;;;;;;26.05;9.35;;;;;;;;;;4956804;29;20210;-62
2022/01/18 14:11:22;;;;;;;22.40;7.15;;;;;;;;;;4956791;28;20677;-62
2022/01/18 14:13:48;;;;;;;31.77;14.95;;;;;;;;;;4955930;29;20218;-62
2022/01/18 14:16:28;;;;;;;37.60;19.88;;;;;;;;;;4940225;28;20674;-61
2022/01/18 14:18:57;;;;;;;26.33;7.68;;;;;;;;;;4957840;28;20214;-61
2022/01/18 14:21:23;;;;;;;29.33;7.72;;;;;;;;;;4954853;28;20230;-62
2022/01/18 14:23:49;;;;;;;28.65;6.25;;;;;;;;;;4989625;28;20213;-61
2022/01/18 14:26:18;;;;;;;23.70;6.25;;;;;;;;;;4994328;28;20251;-59
2022/01/18 14:28:44;;;;;;;21.23;6.03;;;;;;;;;;4994312;28;20672;-61
2022/01/18 14:31:09;;;;;;;25.63;6.30;;;;;;;;;;4994544;28;20216;-61
2022/01/18 14:33:34;;;;;;;28.70;7.72;;;;;;;;;;4996302;28;20688;-73
2022/01/18 14:36:00;;;;;;;25.23;6.30;;;;;;;;;;4995614;28;20252;-61
2022/01/18 14:38:27;;;;;;;32.67;11.57;;;;;;;;;;4995624;28;20749;-61
2022/01/18 14:40:54;;;;;;;26.35;6.00;;;;;;;;;;4993623;28;20606;-61
2022/01/18 14:43:29;;;;;;;19.23;5.28;;;;;;;;;;4978615;28;20210;-62
2022/01/18 14:48:22;;;;;;;17.33;5.65;;;;;;;;;;4974001;28;20222;-62
2022/01/18 14:50:48;;;;;;;21.90;5.57;;;;;;;;;;4976601;28;20210;-61
2022/01/18 14:53:13;;;;;;;24.25;6.28;;;;;;;;;;4975834;28;20712;-62
2022/01/18 14:55:38;;;;;;;24.98;5.35;;;;;;;;;;4974978;28;20317;-62
2022/01/18 14:58:04;;;;;;;23.30;6.03;;;;;;;;;;4974668;28;20217;-62
2022/01/18 15:00:29;;;;;;;26.83;6.85;;;;;;;;;;4968792;28;20221;-62
2022/01/18 15:02:55;;;;;;;30.85;6.18;;;;;;;;;;4955143;28;20219;-62
2022/01/18 15:05:20;;;;;;;30.10;7.50;;;;;;;;;;4957005;28;20223;-61
2022/01/18 15:07:46;;;;;;;31.00;7.80;;;;;;;;;;4955594;28;20211;-62
2022/01/18 15:10:11;;;;;;;26.90;7.15;;;;;;;;;;4955354;28;20219;-62
2022/01/18 15:12:37;;;;;;;23.90;7.00;;;;;;;;;;4955443;28;20674;-62
2022/01/18 15:15:02;;;;;;;22.83;6.30;;;;;;;;;;4955887;28;20265;-62
2022/01/18 15:17:28;;;;;;;23.25;6.88;;;;;;;;;;4969022;28;20217;-62
2022/01/18 15:19:53;;;;;;;24.90;6.68;;;;;;;;;;4974997;28;20295;-62
2022/01/18 15:22:19;;;;;;;23.35;7.15;;;;;;;;;;4997982;28;20228;-62
2022/01/18 15:24:44;;;;;;;31.77;7.47;;;;;;;;;;5014102;28;20304;-61
2022/01/18 15:27:09;;;;;;;21.25;7.00;;;;;;;;;;4996995;28;20245;-64
2022/01/18 15:29:36;;;;;;;23.50;7.18;;;;;;;;;;4978100;28;20256;-61
2022/01/18 15:32:02;;;;;;;24.23;7.53;;;;;;;;;;4993630;28;20306;-62
2022/01/18 15:34:28;;;;;;;27.58;8.63;;;;;;;;;;4977674;28;20307;-61
2022/01/18 15:36:53;;;;;;;23.05;7.90;;;;;;;;;;4994811;28;20316;-61
2022/01/18 15:39:20;;;;;;;24.67;8.23;;;;;;;;;;5005990;28;20235;-61
2022/01/18 15:41:45;;;;;;;30.15;8.68;;;;;;;;;;5014098;28;20220;-61